createdAt,value
2022-09-30T00:01:41.592Z,1.97
2022-09-30T00:05:06.038Z,1.80
2022-09-30T00:08:29.987Z,1.70
2022-09-30T00:11:53.788Z,1.57
2022-09-30T00:15:17.756Z,2.20
2022-09-30T00:18:44.288Z,1.67
2022-09-30T00:22:08.085Z,1.77
2022-09-30T00:25:31.512Z,2.03
2022-09-30T00:28:57.737Z,2.00
2022-09-30T00:32:21.188Z,1.97
2022-09-30T00:35:46.434Z,1.77
2022-09-30T00:39:12.554Z,2.30
2022-09-30T00:42:35.985Z,2.00
2022-09-30T00:46:01.435Z,1.73
2022-09-30T00:49:27.294Z,2.37
2022-09-30T00:53:01.113Z,2.03
2022-09-30T00:56:29.186Z,1.70
2022-09-30T00:59:53.674Z,2.07
2022-09-30T01:03:17.974Z,1.90
2022-09-30T01:06:42.308Z,1.43
2022-09-30T01:10:08.111Z,1.60
2022-09-30T01:13:35.899Z,1.83
2022-09-30T01:17:05.195Z,1.53
2022-09-30T01:20:46.465Z,1.70
2022-09-30T01:24:39.034Z,1.50
2022-09-30T01:28:43.855Z,1.70
2022-09-30T01:32:24.162Z,1.47
2022-09-30T01:36:05.740Z,1.50
2022-09-30T01:39:38.959Z,1.50
2022-09-30T01:43:10.997Z,1.97
2022-09-30T01:46:38.509Z,1.80
2022-09-30T01:50:08.749Z,1.80
2022-09-30T01:53:38.823Z,2.03
2022-09-30T01:57:08.598Z,1.80
2022-09-30T02:00:34.915Z,2.00
2022-09-30T02:04:02.825Z,1.40
2022-09-30T02:07:34.699Z,1.60
2022-09-30T02:11:02.598Z,2.40
2022-09-30T02:14:33.156Z,1.70
2022-09-30T02:18:01.391Z,1.90
2022-09-30T02:21:33.820Z,2.03
2022-09-30T02:25:03.381Z,1.87
2022-09-30T02:28:30.437Z,2.00
2022-09-30T02:31:58.067Z,2.17
2022-09-30T02:35:27.657Z,2.20
2022-09-30T02:39:01.516Z,2.10
2022-09-30T02:42:30.130Z,1.97
2022-09-30T02:46:04.018Z,2.23
2022-09-30T02:49:33.195Z,1.73
2022-09-30T02:53:12.083Z,2.47
2022-09-30T02:56:48.700Z,1.40
2022-09-30T03:00:14.342Z,2.17
2022-09-30T03:03:43.006Z,2.10
2022-09-30T03:07:06.469Z,2.07
2022-09-30T03:10:31.692Z,1.90
2022-09-30T03:14:25.034Z,2.03
2022-09-30T03:18:09.276Z,2.77
2022-09-30T03:21:54.733Z,2.43
2022-09-30T03:25:38.714Z,2.00
2022-09-30T03:29:12.577Z,2.77
2022-09-30T03:32:53.938Z,2.33
2022-09-30T03:36:33.108Z,2.37
2022-09-30T03:40:05.416Z,2.33
2022-09-30T03:43:34.714Z,2.30
2022-09-30T03:47:01.991Z,2.60
2022-09-30T03:50:26.955Z,2.93
2022-09-30T03:53:53.305Z,2.90
2022-09-30T03:57:17.183Z,2.67
2022-09-30T04:00:44.283Z,2.13
2022-09-30T04:04:08.120Z,2.20
2022-09-30T04:07:32.169Z,2.50
2022-09-30T04:10:57.422Z,2.43
2022-09-30T04:14:21.184Z,2.40
2022-09-30T04:17:44.944Z,2.67
2022-09-30T04:21:10.151Z,2.33
2022-09-30T04:24:34.528Z,2.30
2022-09-30T04:27:59.712Z,2.73
2022-09-30T04:31:23.608Z,2.40
2022-09-30T04:34:47.449Z,2.80
2022-09-30T04:38:11.256Z,2.60
2022-09-30T04:41:35.081Z,2.63
2022-09-30T04:45:00.339Z,2.43
2022-09-30T04:48:24.119Z,2.30
2022-09-30T04:51:48.136Z,2.40
2022-09-30T04:55:12.986Z,2.70
2022-09-30T04:58:37.311Z,2.47
2022-09-30T05:02:02.935Z,2.33
2022-09-30T05:05:26.955Z,2.77
2022-09-30T05:08:50.486Z,2.93
2022-09-30T05:12:15.627Z,2.93
2022-09-30T05:15:39.354Z,2.60
2022-09-30T05:19:04.748Z,3.37
2022-09-30T05:22:29.084Z,2.57
2022-09-30T05:25:53.832Z,2.80
2022-09-30T05:29:17.835Z,2.60
2022-09-30T05:32:41.611Z,2.43
2022-09-30T05:36:08.758Z,2.53
2022-09-30T05:39:32.519Z,2.67
2022-09-30T05:42:58.356Z,2.70
2022-09-30T05:46:22.397Z,2.70
2022-09-30T05:49:46.504Z,2.90
2022-09-30T05:53:11.268Z,2.77
2022-09-30T05:56:35.552Z,2.80
2022-09-30T05:59:59.317Z,2.83
2022-09-30T06:03:23.631Z,2.50
2022-09-30T06:06:47.733Z,2.67
2022-09-30T06:10:13.033Z,3.27
2022-09-30T06:13:37.541Z,3.33
2022-09-30T06:17:02.091Z,2.93
2022-09-30T06:20:25.955Z,2.93
2022-09-30T06:23:49.714Z,2.60
2022-09-30T06:27:14.861Z,3.07
2022-09-30T06:30:38.812Z,2.53
2022-09-30T06:34:02.713Z,3.00
2022-09-30T06:37:27.249Z,3.37
2022-09-30T06:40:51.464Z,2.80
2022-09-30T06:44:16.744Z,2.97
2022-09-30T06:47:52.836Z,3.20
2022-09-30T06:51:20.720Z,3.50
2022-09-30T06:54:44.696Z,3.17
2022-09-30T06:58:11.187Z,3.60
2022-09-30T07:01:36.496Z,3.80
2022-09-30T07:05:01.655Z,3.07
2022-09-30T07:08:29.054Z,3.07
2022-09-30T07:11:52.883Z,3.17
2022-09-30T07:15:16.908Z,3.40
2022-09-30T07:18:43.546Z,3.10
2022-09-30T07:22:24.757Z,3.20
2022-09-30T07:25:54.250Z,3.93
2022-09-30T07:29:18.313Z,3.60
2022-09-30T07:32:43.160Z,3.37
2022-09-30T07:36:09.304Z,2.97
2022-09-30T07:39:32.741Z,3.17
2022-09-30T07:42:56.131Z,3.40
2022-09-30T07:46:24.400Z,3.47
2022-09-30T07:49:47.866Z,3.23
2022-09-30T07:53:12.643Z,4.47
2022-09-30T07:56:58.137Z,4.17
2022-09-30T08:00:41.765Z,4.30
2022-09-30T08:04:10.584Z,4.13
2022-09-30T08:07:34.485Z,3.43
2022-09-30T08:11:01.624Z,4.43
2022-09-30T08:14:28.143Z,4.53
2022-09-30T08:17:51.569Z,3.97
2022-09-30T08:21:15.056Z,4.10
2022-09-30T08:24:38.525Z,4.03
2022-09-30T08:28:03.641Z,4.10
2022-09-30T08:31:27.929Z,4.40
2022-09-30T08:34:51.360Z,3.40
2022-09-30T08:38:14.767Z,4.80
2022-09-30T08:42:13.919Z,4.27
2022-09-30T08:46:12.163Z,4.13
2022-09-30T08:49:51.300Z,4.87
2022-09-30T08:53:23.935Z,4.30
2022-09-30T08:56:48.307Z,4.47
2022-09-30T09:00:16.698Z,4.70
2022-09-30T09:03:41.863Z,5.30
2022-09-30T09:07:20.475Z,4.93
2022-09-30T09:10:50.250Z,4.90
2022-09-30T09:14:31.695Z,5.83
2022-09-30T09:18:23.633Z,5.73
2022-09-30T09:21:57.090Z,5.37
2022-09-30T09:25:27.888Z,5.60
2022-09-30T09:29:10.107Z,4.83
2022-09-30T09:32:33.797Z,5.30
2022-09-30T09:36:13.231Z,4.60
2022-09-30T09:40:04.071Z,4.77
2022-09-30T09:43:48.246Z,4.60
2022-09-30T09:47:15.627Z,4.50
2022-09-30T09:50:51.744Z,4.13
2022-09-30T09:54:20.002Z,4.70
2022-09-30T09:57:44.783Z,4.10
2022-09-30T10:01:32.032Z,3.40
2022-09-30T10:05:01.516Z,3.43
2022-09-30T10:08:25.103Z,3.20
2022-09-30T10:11:48.541Z,2.90
2022-09-30T10:15:26.595Z,3.53
2022-09-30T10:18:50.085Z,3.20
2022-09-30T10:22:25.718Z,3.07
2022-09-30T10:26:06.245Z,3.07
2022-09-30T10:29:32.590Z,3.70
2022-09-30T10:32:57.543Z,3.57
2022-09-30T10:36:23.520Z,3.00
2022-09-30T10:39:58.758Z,2.70
2022-09-30T10:43:32.532Z,3.20
2022-09-30T10:47:03.695Z,2.80
2022-09-30T10:50:28.711Z,1.83
2022-09-30T10:53:52.145Z,2.10
2022-09-30T10:57:19.712Z,1.60
2022-09-30T11:00:43.845Z,1.67
2022-09-30T11:04:20.309Z,1.67
2022-09-30T11:07:53.343Z,1.70
2022-09-30T11:11:27.131Z,2.00
2022-09-30T11:14:58.991Z,1.90
2022-09-30T11:18:31.059Z,1.90
2022-09-30T11:21:59.800Z,2.13
2022-09-30T11:25:36.043Z,1.70
2022-09-30T11:29:29.161Z,1.47
2022-09-30T11:33:15.734Z,1.40
2022-09-30T11:36:52.161Z,1.90
2022-09-30T11:40:42.204Z,1.40
2022-09-30T11:44:24.761Z,1.40
2022-09-30T11:48:18.288Z,1.63
2022-09-30T11:51:55.268Z,1.40
2022-09-30T11:55:44.625Z,1.30
2022-09-30T11:59:24.965Z,1.33
2022-09-30T12:02:54.310Z,1.60
2022-09-30T12:06:29.737Z,1.53
2022-09-30T12:10:00.693Z,1.60
2022-09-30T12:13:32.618Z,1.60
2022-09-30T12:16:59.321Z,1.53
2022-09-30T12:20:28.624Z,1.57
2022-09-30T12:24:02.646Z,1.67
2022-09-30T12:27:35.100Z,1.50
2022-09-30T12:31:24.731Z,1.50
2022-09-30T12:35:07.422Z,1.73
2022-09-30T12:38:59.402Z,1.07
2022-09-30T12:42:58.529Z,1.20
2022-09-30T12:46:49.145Z,1.00
2022-09-30T12:50:17.440Z,1.00
2022-09-30T12:53:41.942Z,1.10
2022-09-30T12:57:10.196Z,1.10
2022-09-30T13:00:37.672Z,1.20
2022-09-30T13:04:34.639Z,1.20
2022-09-30T13:08:11.393Z,1.00
2022-09-30T13:11:40.277Z,1.00
2022-09-30T13:15:38.917Z,0.97
2022-09-30T13:19:03.538Z,1.00
2022-09-30T13:23:01.272Z,0.90
2022-09-30T13:26:48.417Z,1.00
2022-09-30T13:30:40.071Z,0.80
2022-09-30T13:34:15.164Z,0.80
2022-09-30T13:37:40.960Z,0.80
2022-09-30T13:41:18.391Z,0.90
2022-09-30T13:45:00.891Z,0.90
2022-09-30T13:48:33.386Z,0.80
2022-09-30T13:51:57.359Z,0.77
2022-09-30T13:55:28.068Z,0.77
2022-09-30T13:59:20.866Z,0.90
2022-09-30T14:03:20.704Z,0.80
2022-09-30T14:07:01.159Z,0.83
2022-09-30T14:10:45.648Z,0.83
2022-09-30T14:15:00.397Z,0.80
2022-09-30T14:19:18.104Z,0.80
2022-09-30T14:22:42.908Z,0.80
2022-09-30T14:26:32.080Z,0.80
2022-09-30T14:30:07.630Z,0.70
2022-09-30T14:33:34.356Z,0.80
2022-09-30T14:36:57.912Z,1.00
2022-09-30T14:40:31.309Z,0.83
2022-09-30T14:43:59.955Z,1.00
2022-09-30T14:47:26.753Z,0.93
2022-09-30T14:51:00.813Z,1.13
2022-09-30T14:54:28.780Z,1.13
2022-09-30T14:57:53.068Z,0.90
2022-09-30T15:01:18.563Z,1.20
2022-09-30T15:04:51.497Z,1.30
2022-09-30T15:08:21.677Z,1.27
2022-09-30T15:11:46.795Z,1.20
2022-09-30T15:15:35.351Z,1.30
2022-09-30T15:19:00.081Z,1.10
2022-09-30T15:22:27.550Z,1.00
2022-09-30T15:25:52.082Z,1.10
2022-09-30T15:29:17.581Z,1.20
2022-09-30T15:32:41.660Z,1.30
2022-09-30T15:36:15.800Z,1.20
2022-09-30T15:40:05.045Z,1.20
2022-09-30T15:43:42.616Z,1.10
2022-09-30T15:47:09.365Z,0.90
2022-09-30T15:50:41.424Z,1.00
2022-09-30T15:54:34.650Z,1.27
2022-09-30T15:58:00.881Z,0.90
2022-09-30T16:01:27.738Z,1.10
2022-09-30T16:04:53.344Z,1.27
2022-09-30T16:08:26.637Z,1.00
2022-09-30T16:12:02.832Z,1.17
2022-09-30T16:15:27.712Z,1.00
2022-09-30T16:18:54.687Z,0.93
2022-09-30T16:22:51.514Z,1.07
2022-09-30T16:26:24.212Z,0.97
2022-09-30T16:29:47.949Z,1.00
2022-09-30T16:33:16.349Z,1.17
2022-09-30T16:36:39.759Z,1.10
2022-09-30T16:40:18.301Z,1.00
2022-09-30T16:43:43.776Z,1.20
2022-09-30T16:47:07.402Z,1.13
2022-09-30T16:50:39.370Z,1.33
2022-09-30T16:54:02.814Z,1.20
2022-09-30T16:57:26.276Z,1.20
2022-09-30T17:00:50.379Z,1.13
2022-09-30T17:04:16.584Z,1.10
2022-09-30T17:07:44.327Z,1.20
2022-09-30T17:11:08.157Z,1.20
2022-09-30T17:14:31.561Z,1.30
2022-09-30T17:17:55.378Z,1.40
2022-09-30T17:21:19.830Z,1.13
2022-09-30T17:24:44.546Z,1.20
2022-09-30T17:28:08.761Z,1.10
2022-09-30T17:31:32.237Z,1.30
2022-09-30T17:34:55.842Z,1.67
2022-09-30T17:38:19.281Z,1.10
2022-09-30T17:42:01.429Z,1.27
2022-09-30T17:45:27.975Z,1.30
2022-09-30T17:48:56.368Z,1.10
2022-09-30T17:52:20.060Z,1.40
2022-09-30T17:55:43.959Z,1.30
2022-09-30T17:59:09.694Z,1.50
2022-09-30T18:02:34.063Z,1.30
2022-09-30T18:06:01.102Z,0.97
2022-09-30T18:09:24.886Z,1.30
2022-09-30T18:12:49.300Z,1.43
2022-09-30T18:16:14.111Z,1.43
2022-09-30T18:19:37.551Z,1.27
2022-09-30T18:23:00.914Z,1.27
2022-09-30T18:26:24.916Z,1.03
2022-09-30T18:29:48.349Z,1.00
2022-09-30T18:33:17.154Z,1.07
2022-09-30T18:36:40.616Z,1.23
2022-09-30T18:40:04.125Z,1.20
2022-09-30T18:43:27.640Z,1.20
2022-09-30T18:46:51.274Z,1.10
2022-09-30T18:50:17.937Z,1.30
2022-09-30T18:53:41.397Z,1.30
2022-09-30T18:57:05.061Z,1.50
2022-09-30T19:00:31.249Z,1.20
2022-09-30T19:03:54.832Z,1.37
2022-09-30T19:07:21.775Z,1.23
2022-09-30T19:10:45.422Z,2.07
2022-09-30T19:14:12.399Z,2.07
2022-09-30T19:17:37.288Z,2.70
2022-09-30T19:21:24.261Z,1.90
2022-09-30T19:24:48.995Z,1.57
2022-09-30T19:28:14.514Z,1.60
2022-09-30T19:31:38.387Z,1.50
2022-09-30T19:35:05.858Z,2.13
2022-09-30T19:38:37.666Z,2.03
2022-09-30T19:42:04.112Z,1.90
2022-09-30T19:45:28.276Z,1.83
2022-09-30T19:48:51.895Z,2.10
2022-09-30T19:52:21.865Z,2.10
2022-09-30T19:55:50.912Z,2.27
2022-09-30T19:59:16.216Z,2.20
2022-09-30T20:02:39.831Z,2.00
2022-09-30T20:06:08.933Z,1.60
2022-09-30T20:09:32.473Z,1.90
2022-09-30T20:12:55.954Z,1.70
2022-09-30T20:16:20.773Z,1.90
2022-09-30T20:20:04.437Z,1.90
2022-09-30T20:23:27.959Z,1.90
2022-09-30T20:26:52.125Z,2.07
2022-09-30T20:30:17.265Z,1.73
2022-09-30T20:33:43.808Z,1.80
2022-09-30T20:37:07.241Z,1.80
2022-09-30T20:40:30.732Z,1.80
2022-09-30T20:43:54.396Z,2.10
2022-09-30T20:47:17.855Z,1.90
2022-09-30T20:50:45.168Z,3.93
2022-09-30T20:54:10.002Z,2.50
2022-09-30T20:57:33.435Z,2.30
2022-09-30T21:01:03.353Z,2.60
2022-09-30T21:04:26.891Z,2.40
2022-09-30T21:07:51.761Z,2.30
2022-09-30T21:11:15.978Z,1.67
2022-09-30T21:14:40.096Z,2.30
2022-09-30T21:18:03.634Z,2.30
2022-09-30T21:21:30.128Z,2.03
2022-09-30T21:24:55.120Z,2.00
2022-09-30T21:28:18.473Z,1.70
2022-09-30T21:31:42.028Z,1.80
2022-09-30T21:35:06.097Z,1.73
2022-09-30T21:38:30.846Z,1.80
2022-09-30T21:41:55.885Z,1.27
2022-09-30T21:45:20.047Z,1.50
2022-09-30T21:48:46.464Z,1.50
2022-09-30T21:52:10.594Z,1.50
2022-09-30T21:55:34.174Z,1.70
2022-09-30T21:58:59.381Z,2.10
2022-09-30T22:02:23.186Z,1.90
2022-09-30T22:05:53.105Z,2.10
2022-09-30T22:09:17.094Z,1.77
2022-09-30T22:12:40.661Z,1.83
2022-09-30T22:16:07.699Z,1.60
2022-09-30T22:19:31.857Z,1.40
2022-09-30T22:22:55.414Z,1.50
2022-09-30T22:26:22.537Z,1.40
2022-09-30T22:29:45.871Z,1.87
2022-09-30T22:33:28.217Z,1.93
2022-09-30T22:37:09.869Z,1.67
2022-09-30T22:40:33.365Z,1.60
2022-09-30T22:43:57.097Z,1.53
2022-09-30T22:47:20.443Z,1.70
2022-09-30T22:50:45.818Z,1.80
2022-09-30T22:54:09.576Z,1.70
2022-09-30T22:57:33.429Z,1.93
2022-09-30T23:00:59.546Z,1.67
2022-09-30T23:04:23.679Z,1.70
2022-09-30T23:07:48.370Z,2.00
2022-09-30T23:11:15.323Z,1.60
2022-09-30T23:14:38.674Z,1.60
2022-09-30T23:18:02.075Z,1.87
2022-09-30T23:21:26.826Z,1.43
2022-09-30T23:24:51.499Z,1.80
2022-09-30T23:28:14.870Z,1.40
2022-09-30T23:31:38.861Z,1.70
2022-09-30T23:35:02.449Z,2.20
2022-09-30T23:38:27.564Z,1.47
2022-09-30T23:41:52.317Z,1.70
2022-09-30T23:45:15.822Z,1.70
2022-09-30T23:48:40.435Z,2.07
2022-09-30T23:52:06.960Z,1.60
2022-09-30T23:55:32.743Z,2.30
2022-09-30T23:58:58.802Z,2.40
